TimeMST,TemperatureF,Dew PointF,Humidity,Sea Level PressureIn,VisibilityMPH,Wind Direction,Wind SpeedMPH,Gust SpeedMPH,PrecipitationIn,Events,Conditions,WindDirDegrees,DateUTC
3:53 AM,78.8,73.4,83,29.77,10.0,East,6.9,-,N/A,,Clear,90,2012-10-02 10:53:00
4:42 AM,77.0,71.6,83,29.78,10.0,East,5.8,-,N/A,,Clear,100,2012-10-02 11:42:00
5:42 AM,78.8,73.4,83,29.79,10.0,Calm,Calm,-,N/A,,Clear,0,2012-10-02 12:42:00
6:42 AM,77.0,73.4,89,29.81,10.0,NNW,3.5,-,N/A,,Clear,340,2012-10-02 13:42:00
7:48 AM,82.4,73.4,74,29.82,10.0,NW,2.3,-,N/A,,Clear,320,2012-10-02 14:48:00
7:50 AM,82,77,81,29.85,12,NNE,6.7,,,,,20,2012-10-02 14:50:00
8:43 AM,89.6,73.4,59,29.84,10.0,North,3.5,-,N/A,,Clear,10,2012-10-02 15:43:00
9:47 AM,93.2,60.8,34,29.84,10.0,ESE,5.8,-,N/A,,Clear,120,2012-10-02 16:47:00
10:50 AM,99,66,24,29.86,12,SSE,11.2,,,,,160,2012-10-02 17:50:00
10:59 AM,96.8,51.8,22,29.83,10.0,SSE,2.3,-,N/A,,Clear,160,2012-10-02 17:59:00
11:41 AM,98.6,50.0,19,29.81,10.0,SE,3.5,-,N/A,,Clear,130,2012-10-02 18:41:00
12:43 PM,100.4,44.6,15,29.78,10.0,SSE,6.9,-,N/A,,Clear,160,2012-10-02 19:43:00
1:43 PM,104.0,44.6,13,29.75,10.0,SSE,9.2,-,N/A,,Clear,150,2012-10-02 20:43:00
1:50 PM,106,56,12,29.78,12,SSW,11.2,,,,,200,2012-10-02 20:50:00
2:44 PM,102.2,62.6,27,29.74,10.0,SW,6.9,-,N/A,,Clear,230,2012-10-02 21:44:00
3:42 PM,100.4,51.8,20,29.74,10.0,SW,12.7,-,N/A,,Clear,230,2012-10-02 22:42:00
4:42 PM,98.6,51.8,21,29.76,10.0,SW,9.2,-,N/A,,Clear,220,2012-10-02 23:42:00
4:50 PM,98,58,18,29.78,12,SW,17.9,,,,,220,2012-10-02 23:50:00
5:40 PM,95.0,53.6,25,29.76,10.0,SW,11.5,-,N/A,,Clear,230,2012-10-03 00:40:00
6:41 PM,87.8,59.0,38,29.78,10.0,SW,5.8,-,N/A,,Clear,230,2012-10-03 01:41:00
7:40 PM,82.4,60.8,48,29.80,10.0,West,2.3,-,N/A,,Clear,270,2012-10-03 02:40:00
8:41 PM,82.4,62.6,51,29.81,10.0,Calm,Calm,-,N/A,,Clear,0,2012-10-03 03:41:00
9:42 PM,78.8,64.4,61,29.82,10.0,ESE,3.5,-,N/A,,Clear,110,2012-10-03 04:42:00
10:43 PM,78.8,66.2,65,29.82,10.0,ESE,5.8,-,N/A,,Clear,120,2012-10-03 05:43:00
11:41 PM,80.6,69.8,70,29.82,10.0,ESE,5.8,-,N/A,,Clear,110,2012-10-03 06:41:00